createdAt,value
2023-02-16T00:16:53.068Z,43.7
2023-02-16T00:36:53.020Z,43.7
2023-02-16T00:56:53.036Z,43.7
2023-02-16T01:16:53.011Z,43.8
2023-02-16T01:36:52.948Z,43.8
2023-02-16T01:56:52.989Z,43.9
2023-02-16T02:16:52.917Z,43.9
2023-02-16T02:36:52.930Z,43.9
2023-02-16T02:56:52.884Z,43.9
2023-02-16T03:16:52.862Z,43.9
2023-02-16T03:36:52.837Z,43.9
2023-02-16T03:56:52.805Z,43.9
2023-02-16T04:16:52.763Z,44.0
2023-02-16T04:36:52.746Z,43.8
2023-02-16T04:56:52.714Z,43.9
2023-02-16T05:16:52.696Z,43.9
2023-02-16T05:36:52.760Z,43.3
2023-02-16T05:56:52.659Z,42.8
2023-02-16T06:16:52.642Z,43.3
2023-02-16T06:36:52.607Z,43.5
2023-02-16T06:56:52.634Z,42.6
2023-02-16T07:16:52.647Z,43.0
2023-02-16T07:36:52.556Z,43.3
2023-02-16T07:56:52.540Z,43.4
2023-02-16T08:16:52.632Z,43.3
2023-02-16T08:36:52.505Z,43.4
2023-02-16T08:56:52.439Z,43.7
2023-02-16T09:16:52.481Z,43.7
2023-02-16T09:36:52.507Z,43.6
2023-02-16T09:56:52.342Z,43.3
2023-02-16T10:16:52.345Z,43.1
2023-02-16T10:36:52.298Z,43.1
2023-02-16T10:56:52.318Z,43.0
2023-02-16T11:16:52.277Z,42.7
2023-02-16T11:36:52.258Z,42.4
2023-02-16T11:56:52.190Z,42.5
2023-02-16T12:16:52.182Z,42.4
2023-02-16T12:36:52.240Z,42.8
2023-02-16T12:56:52.131Z,43.2
2023-02-16T13:16:52.111Z,43.4
2023-02-16T13:36:52.239Z,42.1
2023-02-16T13:56:52.258Z,42.5
2023-02-16T14:16:52.178Z,42.8
2023-02-16T14:36:52.070Z,43.0
2023-02-16T14:56:52.091Z,43.2
2023-02-16T15:16:51.996Z,43.3
2023-02-16T15:36:52.114Z,43.5
2023-02-16T15:56:51.970Z,44.0
2023-02-16T16:16:51.922Z,44.1
2023-02-16T16:36:52.005Z,44.1
2023-02-16T16:56:51.948Z,44.0
2023-02-16T17:16:51.897Z,44.0
2023-02-16T17:36:51.762Z,44.0
2023-02-16T17:56:51.793Z,44.0
2023-02-16T18:16:51.913Z,44.0
2023-02-16T18:36:51.683Z,44.0
2023-02-16T18:56:51.741Z,44.0
2023-02-16T19:16:51.672Z,44.1
2023-02-16T19:36:51.722Z,44.2
2023-02-16T19:56:51.619Z,44.3
2023-02-16T20:16:51.593Z,44.4
2023-02-16T20:36:51.716Z,44.3
2023-02-16T20:56:51.630Z,44.5
2023-02-16T21:16:51.602Z,44.7
2023-02-16T21:36:51.581Z,44.9
2023-02-16T21:56:51.466Z,45.1
2023-02-16T22:16:51.445Z,45.1
2023-02-16T22:36:51.445Z,45.1
2023-02-16T22:56:51.564Z,45.1
2023-02-16T23:16:51.465Z,45.1
2023-02-16T23:36:51.303Z,45.2
2023-02-16T23:56:51.318Z,45.2
